Time;durP1;ratioP1;P1;durP2;ratioP2;P2;SDS_P1;SDS_P2;PMS_P1;PMS_P2;Temp;Humidity;BMP_temperature;BMP_pressure;BME280_temperature;BME280_humidity;BME280_pressure;Samples;Min_cycle;Max_cycle;Signal;HPM_P1;HPM_P2
2023/09/22 00:01:58;;;;;;;9.40;3.10;;;;;;;18.54;75.50;98657.63;109526;1252;57333;-63
2023/09/22 00:04:45;;;;;;;10.30;2.70;;;;;;;18.53;75.57;98659.27;109505;1253;60252;-62
2023/09/22 00:07:31;;;;;;;8.00;2.90;;;;;;;18.52;75.57;98659.23;109323;1252;73864;-62
2023/09/22 00:10:18;;;;;;;7.00;2.70;;;;;;;18.52;75.82;98656.91;109517;1252;67457;-62
2023/09/22 00:13:05;;;;;;;8.60;2.90;;;;;;;18.52;75.77;98653.89;109326;1253;72824;-64
2023/09/22 00:15:51;;;;;;;8.60;2.80;;;;;;;18.50;75.77;98653.67;109384;1253;57826;-62
2023/09/22 00:18:38;;;;;;;7.10;2.80;;;;;;;18.49;75.90;98652.81;109327;1253;59969;-62
2023/09/22 00:21:24;;;;;;;7.90;3.00;;;;;;;18.47;75.99;98654.13;109553;1252;72822;-61
2023/09/22 00:24:10;;;;;;;8.30;2.70;;;;;;;18.48;75.95;98646.70;109515;1253;67717;-62
2023/09/22 00:26:57;;;;;;;7.40;2.80;;;;;;;18.46;75.97;98644.73;109368;1253;72536;-63
2023/09/22 00:29:43;;;;;;;7.90;2.90;;;;;;;18.44;75.99;98640.91;109483;1253;57330;-62
2023/09/22 00:32:30;;;;;;;7.60;2.80;;;;;;;18.42;76.23;98635.48;109377;1252;59225;-63
2023/09/22 00:35:17;;;;;;;8.20;3.00;;;;;;;18.39;76.42;98637.38;109357;1252;72131;-63
2023/09/22 00:38:03;;;;;;;8.20;2.90;;;;;;;18.36;76.49;98640.70;109397;1252;68811;-61
2023/09/22 00:40:49;;;;;;;8.00;3.00;;;;;;;18.35;76.60;98639.08;109312;1253;71005;-63
2023/09/22 00:43:37;;;;;;;8.10;2.70;;;;;;;18.34;76.67;98630.85;109519;1253;58665;-61
2023/09/22 00:46:26;;;;;;;9.10;2.70;;;;;;;18.31;76.82;98627.05;109385;1253;61210;-61
2023/09/22 00:49:13;;;;;;;8.10;2.90;;;;;;;18.26;77.13;98623.35;109221;1253;74054;-62
2023/09/22 00:52:00;;;;;;;10.10;2.60;;;;;;;18.21;77.38;98621.85;109296;1252;66354;-63
2023/09/22 00:54:51;;;;;;;8.60;2.70;;;;;;;18.17;77.64;98620.56;109332;1253;73311;-61
2023/09/22 00:57:38;;;;;;;7.70;2.80;;;;;;;18.15;77.55;98612.73;109343;1253;59354;-61
2023/09/22 01:00:27;;;;;;;7.40;2.80;;;;;;;18.13;77.63;98610.90;109279;1253;60232;-64
2023/09/22 01:03:14;;;;;;;7.70;2.70;;;;;;;18.09;77.90;98608.61;109484;1253;74138;-63
2023/09/22 01:06:01;;;;;;;9.90;3.20;;;;;;;18.03;78.20;98603.71;109393;1253;65656;-61
2023/09/22 01:08:48;;;;;;;11.10;2.90;;;;;;;18.01;78.33;98605.03;109364;1253;73554;-62
2023/09/22 01:11:35;;;;;;;7.80;2.50;;;;;;;18.01;78.20;98597.33;109489;1254;59481;-61
2023/09/22 01:14:21;;;;;;;10.20;3.10;;;;;;;17.99;78.47;98595.50;109329;1252;60424;-60
2023/09/22 01:17:10;;;;;;;7.40;2.90;;;;;;;17.97;78.69;98593.64;109316;1252;73047;-61
2023/09/22 01:19:58;;;;;;;8.80;3.00;;;;;;;17.95;78.73;98594.25;109512;1253;68763;-61
2023/09/22 01:22:44;;;;;;;7.80;3.00;;;;;;;17.87;78.91;98585.39;109490;1253;72369;-61
2023/09/22 01:25:30;;;;;;;8.50;2.80;;;;;;;17.88;78.96;98590.94;109525;1253;59227;-61
2023/09/22 01:28:17;;;;;;;10.00;3.00;;;;;;;17.86;78.97;98584.63;109507;1253;59979;-60
2023/09/22 01:31:03;;;;;;;8.00;3.00;;;;;;;17.84;79.09;98585.17;109368;1253;73078;-62
2023/09/22 01:33:50;;;;;;;7.20;3.00;;;;;;;17.83;79.20;98587.85;109556;1253;66260;-61
2023/09/22 01:36:36;;;;;;;8.70;2.50;;;;;;;17.82;79.20;98586.06;109356;1253;72599;-60
2023/09/22 01:39:22;;;;;;;8.00;2.60;;;;;;;17.80;79.30;98589.41;109512;1253;57317;-60
2023/09/22 01:42:09;;;;;;;8.40;3.10;;;;;;;17.78;79.46;98586.56;109508;1253;61149;-61
2023/09/22 01:44:55;;;;;;;8.70;3.10;;;;;;;17.77;79.39;98584.36;109532;1252;72058;-61
2023/09/22 01:47:42;;;;;;;8.60;2.80;;;;;;;17.75;79.56;98581.38;109414;1256;66557;-62
2023/09/22 01:50:29;;;;;;;7.40;2.80;;;;;;;17.73;79.69;98579.33;109546;1252;72591;-61
2023/09/22 01:53:15;;;;;;;8.40;3.10;;;;;;;17.69;80.12;98575.73;109533;1253;57385;-62
2023/09/22 01:56:02;;;;;;;7.20;2.80;;;;;;;17.67;80.09;98571.86;109559;1252;60185;-61
2023/09/22 01:58:48;;;;;;;8.10;3.10;;;;;;;17.67;80.25;98567.56;109515;1252;72938;-62
2023/09/22 02:01:35;;;;;;;7.90;2.70;;;;;;;17.65;80.20;98562.08;109481;1253;68859;-62
2023/09/22 02:04:22;;;;;;;7.30;2.90;;;;;;;17.62;80.23;98562.94;109637;1252;72699;-62
2023/09/22 02:07:10;;;;;;;8.60;2.80;;;;;;;17.60;80.42;98561.49;109671;1253;57428;-62
2023/09/22 02:09:56;;;;;;;6.70;2.70;;;;;;;17.57;80.40;98555.20;109735;1253;60046;-62
2023/09/22 02:12:46;;;;;;;8.70;3.00;;;;;;;17.53;80.79;98557.90;109602;1252;74092;-62
2023/09/22 02:15:32;;;;;;;8.10;2.90;;;;;;;17.51;80.99;98551.17;109559;1253;67830;-64
2023/09/22 02:18:19;;;;;;;9.80;3.20;;;;;;;17.50;81.00;98544.87;109172;1254;72656;-62
2023/09/22 02:21:06;;;;;;;7.50;2.80;;;;;;;17.49;81.01;98543.20;109347;1253;57970;-61
2023/09/22 02:23:53;;;;;;;8.00;2.90;;;;;;;17.46;80.84;98536.30;109537;1252;58740;-62
2023/09/22 02:26:40;;;;;;;8.40;3.10;;;;;;;17.42;81.38;98532.45;109517;1253;73771;-61
2023/09/22 02:29:26;;;;;;;10.70;3.20;;;;;;;17.40;81.40;98526.21;109358;1253;67715;-61
2023/09/22 02:32:13;;;;;;;7.90;2.80;;;;;;;17.38;81.53;98521.19;109502;1253;73680;-60
2023/09/22 02:34:59;;;;;;;9.10;3.10;;;;;;;17.35;81.76;98520.66;109521;1257;57349;-61
2023/09/22 02:37:46;;;;;;;9.50;3.00;;;;;;;17.32;81.82;98515.54;109344;1253;60494;-62
2023/09/22 02:40:33;;;;;;;7.70;2.80;;;;;;;17.27;82.00;98512.84;109305;1252;73929;-62
2023/09/22 02:43:19;;;;;;;7.30;3.10;;;;;;;17.24;82.15;98511.38;109550;1253;67878;-61
2023/09/22 02:46:05;;;;;;;8.00;3.10;;;;;;;17.22;82.57;98512.29;109333;1252;71439;-62
2023/09/22 02:48:51;;;;;;;7.80;3.10;;;;;;;17.22;82.35;98509.71;109391;1253;60440;-59
2023/09/22 02:51:37;;;;;;;7.80;3.10;;;;;;;17.18;82.52;98512.84;109536;1253;60294;-60
2023/09/22 02:54:24;;;;;;;7.10;2.90;;;;;;;17.19;82.62;98521.48;109512;1253;74092;-61
2023/09/22 02:57:10;;;;;;;8.70;3.10;;;;;;;17.17;82.81;98519.54;109554;1253;67713;-63
2023/09/22 02:59:56;;;;;;;9.80;3.20;;;;;;;17.16;82.77;98521.52;109345;1253;72531;-63
2023/09/22 03:02:42;;;;;;;7.50;2.70;;;;;;;17.13;82.90;98521.84;109301;1253;59251;-63
2023/09/22 03:05:30;;;;;;;8.50;3.30;;;;;;;17.10;83.18;98527.57;109383;1253;59081;-64
2023/09/22 03:08:17;;;;;;;7.10;3.30;;;;;;;17.10;83.26;98527.23;109367;1253;74101;-63
2023/09/22 03:11:05;;;;;;;8.40;3.10;;;;;;;17.10;83.07;98528.56;109383;1252;66692;-61
2023/09/22 03:13:52;;;;;;;8.20;3.30;;;;;;;17.07;83.25;98531.06;109534;1253;72719;-65
2023/09/22 03:16:41;;;;;;;7.90;3.20;;;;;;;17.06;83.47;98532.22;109364;1253;58648;-63
2023/09/22 03:19:28;;;;;;;10.20;3.20;;;;;;;17.06;83.49;98533.04;109480;1254;59380;-62
2023/09/22 03:22:14;;;;;;;8.70;3.10;;;;;;;17.03;83.55;98522.69;109521;1252;71842;-63
2023/09/22 03:25:01;;;;;;;8.40;2.80;;;;;;;17.05;83.70;98527.45;109367;1253;68848;-62
2023/09/22 03:27:49;;;;;;;7.90;3.10;;;;;;;17.02;83.65;98524.67;109474;1253;72521;-63
2023/09/22 03:30:38;;;;;;;9.20;3.10;;;;;;;17.02;83.62;98521.70;109453;1253;60598;-62
2023/09/22 03:33:24;;;;;;;8.90;3.00;;;;;;;16.99;83.82;98517.50;109331;1253;60979;-62
2023/09/22 03:36:12;;;;;;;7.80;3.50;;;;;;;16.98;83.91;98513.94;109329;1253;73395;-61
2023/09/22 03:38:58;;;;;;;7.90;3.10;;;;;;;16.98;84.05;98508.39;109369;1253;68933;-62
2023/09/22 03:41:45;;;;;;;9.20;4.00;;;;;;;16.96;84.09;98505.36;109602;1253;72512;-61
2023/09/22 03:44:30;;;;;;;8.30;3.40;;;;;;;16.95;84.27;98506.56;109317;1253;58537;-62
2023/09/22 03:47:17;;;;;;;9.30;3.40;;;;;;;16.94;84.17;98503.66;109311;1253;60421;-63
2023/09/22 03:50:05;;;;;;;9.20;3.30;;;;;;;16.92;84.36;98500.23;109543;1252;71794;-62
2023/09/22 03:52:52;;;;;;;7.60;3.20;;;;;;;16.90;84.45;98497.73;109552;1253;68156;-61
2023/09/22 03:55:39;;;;;;;9.70;3.70;;;;;;;16.89;84.70;98494.11;109249;1253;71634;-60
2023/09/22 03:58:26;;;;;;;9.00;3.30;;;;;;;16.89;84.71;98491.11;109516;1253;57292;-62
2023/09/22 04:01:13;;;;;;;8.60;3.60;;;;;;;16.88;84.71;98492.27;109535;1253;60081;-65
2023/09/22 04:04:00;;;;;;;9.50;3.60;;;;;;;16.88;84.78;98496.23;109419;1253;72959;-64
2023/09/22 04:06:47;;;;;;;9.00;3.60;;;;;;;16.89;84.71;98492.34;109639;1252;68611;-67
2023/09/22 04:09:33;;;;;;;7.10;3.10;;;;;;;16.91;84.59;98488.03;109236;1254;72480;-67
2023/09/22 04:12:19;;;;;;;9.60;3.40;;;;;;;16.90;84.73;98484.55;109341;1253;57761;-64
2023/09/22 04:15:08;;;;;;;9.90;3.60;;;;;;;16.90;84.72;98483.84;109525;1257;60192;-66
2023/09/22 04:17:54;;;;;;;8.30;3.70;;;;;;;16.88;85.10;98485.48;109247;1253;73844;-68
2023/09/22 04:20:50;;;;;;;10.90;4.00;;;;;;;16.84;85.26;98480.11;109434;1253;67673;-66
2023/09/22 04:23:36;;;;;;;9.20;3.60;;;;;;;16.89;85.25;98483.71;109429;1253;71106;-70
2023/09/22 04:26:29;;;;;;;9.80;3.80;;;;;;;16.93;84.96;98483.20;109274;1253;59684;-68
2023/09/22 04:29:16;;;;;;;10.30;3.80;;;;;;;16.95;84.80;98484.91;109350;1253;59006;-67
2023/09/22 04:32:06;;;;;;;8.60;3.30;;;;;;;16.97;84.90;98485.37;109314;1252;73104;-69
2023/09/22 04:34:53;;;;;;;10.70;3.70;;;;;;;16.97;84.84;98486.16;109502;1254;67794;-68
2023/09/22 04:37:40;;;;;;;10.60;3.50;;;;;;;16.92;85.09;98487.58;109213;1254;234672;-66
2023/09/22 04:40:35;;;;;;;10.60;3.60;;;;;;;16.89;85.24;98489.47;109538;1253;57656;-64
2023/09/22 04:43:21;;;;;;;10.60;3.30;;;;;;;16.88;85.17;98487.81;109398;1253;58975;-66
2023/09/22 04:46:07;;;;;;;8.00;3.40;;;;;;;16.85;85.53;98493.30;109559;1253;74360;-65
2023/09/22 04:48:55;;;;;;;13.20;4.00;;;;;;;16.86;85.62;98496.31;109548;1253;67631;-65
2023/09/22 04:51:42;;;;;;;9.40;4.20;;;;;;;16.85;85.62;98492.39;109491;1254;72658;-66
2023/09/22 04:54:30;;;;;;;9.80;3.50;;;;;;;16.86;85.33;98488.39;109303;1255;59389;-66
2023/09/22 04:57:17;;;;;;;10.70;3.60;;;;;;;16.85;85.45;98486.48;109486;1254;57903;-64
2023/09/22 05:00:16;;;;;;;9.00;3.70;;;;;;;16.85;85.64;98487.94;109561;1253;72007;-65
2023/09/22 05:03:10;;;;;;;10.60;3.50;;;;;;;16.86;85.77;98490.74;109558;1253;67720;-67
2023/09/22 05:06:06;;;;;;;7.70;3.60;;;;;;;16.88;85.61;98492.99;109430;1252;71933;-66
2023/09/22 05:08:52;;;;;;;8.70;3.60;;;;;;;16.87;85.57;98493.80;109407;1253;57711;-67
2023/09/22 05:11:38;;;;;;;9.20;3.80;;;;;;;16.89;85.61;98493.67;109540;1253;58826;-68
2023/09/22 05:14:26;;;;;;;10.20;4.00;;;;;;;16.89;85.60;98489.80;109504;1253;72932;-68
2023/09/22 05:17:14;;;;;;;8.20;3.60;;;;;;;16.91;85.69;98489.77;109318;1253;65781;-68
2023/09/22 05:20:11;;;;;;;11.40;4.00;;;;;;;16.94;85.59;98488.12;109464;1253;71424;-65
2023/09/22 05:22:58;;;;;;;9.40;3.90;;;;;;;16.98;85.43;98492.61;109514;1253;59488;-68
2023/09/22 05:25:44;;;;;;;10.60;4.00;;;;;;;17.01;85.27;98488.08;109446;1253;57877;-68
2023/09/22 05:28:31;;;;;;;9.20;4.10;;;;;;;17.04;85.26;98488.63;109299;1253;71718;-67
2023/09/22 05:31:18;;;;;;;8.40;3.90;;;;;;;17.08;85.10;98485.05;109273;1253;66638;-67
2023/09/22 05:34:05;;;;;;;9.70;3.80;;;;;;;17.14;84.82;98486.20;109475;1253;72632;-66
2023/09/22 05:36:51;;;;;;;9.10;3.80;;;;;;;17.20;84.59;98485.07;109531;1253;58180;-66
2023/09/22 05:39:38;;;;;;;8.60;3.70;;;;;;;17.28;84.08;98488.70;109467;1253;60175;-63
2023/09/22 05:42:24;;;;;;;9.20;4.00;;;;;;;17.36;83.82;98493.43;109480;1253;74043;-65
2023/09/22 05:45:10;;;;;;;10.90;4.20;;;;;;;17.43;83.51;98494.83;109262;1255;67747;-64
2023/09/22 05:47:57;;;;;;;12.40;4.10;;;;;;;17.48;83.25;98493.48;109297;1254;72693;-64
2023/09/22 05:50:59;;;;;;;10.30;4.10;;;;;;;17.53;82.82;98488.15;109322;1254;58356;-65
2023/09/22 05:53:47;;;;;;;8.70;3.80;;;;;;;17.63;82.47;98495.58;109312;1257;60256;-65
2023/09/22 05:56:34;;;;;;;8.70;3.90;;;;;;;17.69;82.06;98494.68;109553;1253;74092;-66
2023/09/22 05:59:24;;;;;;;10.00;3.50;;;;;;;17.75;81.87;98493.75;109314;1254;66591;-66
2023/09/22 06:02:10;;;;;;;9.90;3.90;;;;;;;17.77;81.73;98499.38;109471;1253;72452;-64
2023/09/22 06:04:58;;;;;;;12.40;4.20;;;;;;;17.73;81.55;98501.11;109254;1254;58362;-65
2023/09/22 06:07:45;;;;;;;8.90;3.40;;;;;;;17.80;81.59;98503.14;109215;1254;59569;-65
2023/09/22 06:10:31;;;;;;;8.50;4.00;;;;;;;17.79;81.44;98501.58;109259;1254;72923;-68
2023/09/22 06:13:17;;;;;;;10.80;4.40;;;;;;;17.80;81.46;98493.88;109302;1253;67740;-65
2023/09/22 06:16:05;;;;;;;9.80;4.40;;;;;;;17.83;81.45;98488.14;109200;1254;72657;-65
2023/09/22 06:18:53;;;;;;;10.60;3.90;;;;;;;17.87;81.30;98492.30;109214;1254;58248;-65
2023/09/22 06:21:40;;;;;;;10.50;3.80;;;;;;;17.85;81.31;98503.08;109463;1255;60109;-66
2023/09/22 06:24:27;;;;;;;19.50;4.30;;;;;;;17.88;81.25;98499.66;109315;1253;72849;-65
2023/09/22 06:27:14;;;;;;;10.20;4.30;;;;;;;18.03;80.52;98496.87;109426;1254;67228;-65
2023/09/22 06:30:01;;;;;;;9.60;3.60;;;;;;;18.17;79.86;98491.05;109455;1257;73530;-62
2023/09/22 06:32:47;;;;;;;11.20;4.00;;;;;;;18.38;78.94;98491.99;109287;1258;57665;-65
2023/09/22 06:35:34;;;;;;;9.40;3.80;;;;;;;18.66;77.87;98491.02;109485;1253;58906;-66
2023/09/22 06:38:20;;;;;;;11.40;3.70;;;;;;;18.92;76.73;98495.61;109435;1252;73795;-66
2023/09/22 06:41:08;;;;;;;9.60;4.00;;;;;;;19.08;75.72;98499.50;109460;1253;66816;-66
2023/09/22 06:43:54;;;;;;;8.60;3.60;;;;;;;19.38;74.72;98501.27;109305;1253;72584;-65
2023/09/22 06:46:44;;;;;;;10.30;3.70;;;;;;;20.03;71.82;98520.88;109323;1252;57989;-70
2023/09/22 06:49:35;;;;;;;10.20;3.70;;;;;;;21.49;67.64;98512.17;109460;1253;58846;-65
2023/09/22 06:52:22;;;;;;;11.30;3.50;;;;;;;23.08;60.47;98525.07;109357;1254;71674;-64
2023/09/22 06:55:09;;;;;;;10.90;3.60;;;;;;;24.33;55.77;98521.45;109474;1253;66050;-65
2023/09/22 06:57:58;;;;;;;12.80;3.70;;;;;;;25.26;51.51;98519.92;109465;1254;73857;-66
2023/09/22 07:00:46;;;;;;;11.40;3.40;;;;;;;26.32;49.32;98516.96;109346;1253;57363;-66
2023/09/22 07:03:32;;;;;;;8.40;3.20;;;;;;;27.09;46.35;98522.70;109296;1257;60572;-67
2023/09/22 07:06:19;;;;;;;11.00;3.20;;;;;;;27.68;44.44;98526.95;109475;1253;71910;-65
2023/09/22 07:09:11;;;;;;;11.70;3.10;;;;;;;28.19;43.11;98527.11;109487;1252;67076;-65
2023/09/22 07:11:57;;;;;;;8.40;3.10;;;;;;;28.39;42.21;98530.08;109458;1253;72357;-68
2023/09/22 07:14:43;;;;;;;9.40;3.10;;;;;;;28.52;41.85;98532.20;109320;1258;57355;-65
2023/09/22 07:17:31;;;;;;;11.00;3.00;;;;;;;28.84;41.26;98531.15;109367;1253;61475;-65
2023/09/22 07:20:17;;;;;;;9.00;3.30;;;;;;;29.47;40.60;98521.16;109471;1253;71615;-63
2023/09/22 07:23:03;;;;;;;11.40;3.00;;;;;;;29.90;39.04;98522.53;109467;1254;66329;-66
2023/09/22 07:26:02;;;;;;;10.70;2.80;;;;;;;30.34;38.26;98518.45;109450;1253;73051;-65
2023/09/22 07:28:48;;;;;;;8.10;2.80;;;;;;;30.52;38.02;98518.80;109453;1254;57565;-64
2023/09/22 07:31:35;;;;;;;7.80;3.00;;;;;;;30.89;37.21;98516.14;109432;1254;59388;-65
2023/09/22 07:34:21;;;;;;;11.30;3.10;;;;;;;31.19;36.65;98511.48;109419;1253;73861;-66
2023/09/22 07:37:11;;;;;;;11.20;2.90;;;;;;;31.15;35.68;98509.22;109420;1252;67735;-69
2023/09/22 07:40:09;;;;;;;8.20;3.00;;;;;;;31.29;35.63;98508.23;109297;1254;73751;-67
2023/09/22 07:42:56;;;;;;;9.60;3.10;;;;;;;31.41;35.52;98505.94;109415;1252;57769;-66
2023/09/22 07:45:45;;;;;;;11.30;3.10;;;;;;;31.65;35.20;98509.83;109351;1253;61078;-68
2023/09/22 07:48:32;;;;;;;10.20;2.90;;;;;;;31.52;35.00;98511.59;109345;1253;73242;-66
2023/09/22 07:51:20;;;;;;;11.20;3.20;;;;;;;31.33;35.43;98517.59;109522;1253;65884;-68
2023/09/22 07:54:07;;;;;;;10.00;2.90;;;;;;;31.25;35.35;98510.52;109308;1253;72745;-67
2023/09/22 07:56:53;;;;;;;15.20;3.00;;;;;;;31.15;35.57;98511.98;109440;1252;57355;-67
2023/09/22 07:59:39;;;;;;;8.90;2.90;;;;;;;31.18;35.48;98511.27;109564;1253;60439;-65
2023/09/22 08:02:26;;;;;;;10.80;3.30;;;;;;;30.87;35.96;98513.73;109564;1254;71674;-65
2023/09/22 08:05:15;;;;;;;9.00;3.10;;;;;;;31.13;35.67;98510.61;109614;1254;67754;-67
2023/09/22 08:08:02;;;;;;;10.50;3.30;;;;;;;31.52;35.14;98512.15;109391;1254;72721;-64
2023/09/22 08:10:48;;;;;;;11.60;3.20;;;;;;;31.83;34.58;98508.46;109481;1252;57853;-63
2023/09/22 08:13:35;;;;;;;12.30;3.20;;;;;;;31.85;34.29;98514.93;109499;1253;60036;-61
2023/09/22 08:16:21;;;;;;;8.20;2.80;;;;;;;31.51;34.74;98528.45;109311;1254;71957;-64
2023/09/22 08:19:11;;;;;;;8.80;3.10;;;;;;;31.16;35.29;98528.77;109475;1253;68942;-64
2023/09/22 08:21:58;;;;;;;8.90;3.00;;;;;;;30.56;36.32;98530.65;109472;1254;72444;-68
2023/09/22 08:24:47;;;;;;;10.20;3.00;;;;;;;30.00;37.58;98528.82;109525;1252;57514;-67
2023/09/22 08:27:37;;;;;;;10.00;3.40;;;;;;;29.81;38.23;98521.77;109449;1252;60252;-64
2023/09/22 08:30:25;;;;;;;11.00;3.40;;;;;;;30.08;37.99;98517.88;109546;1253;73075;-62
2023/09/22 08:33:11;;;;;;;12.70;3.30;;;;;;;30.73;36.85;98515.69;109241;1254;66481;-63
2023/09/22 08:35:57;;;;;;;7.60;2.70;;;;;;;31.67;35.48;98514.79;109454;1252;72058;-62
2023/09/22 08:38:51;;;;;;;9.80;3.00;;;;;;;32.49;33.84;98517.30;109460;1253;57400;-65
2023/09/22 08:41:38;;;;;;;8.30;2.70;;;;;;;33.00;33.04;98519.59;109221;1254;60308;-64
2023/09/22 08:44:26;;;;;;;9.70;2.90;;;;;;;33.45;32.25;98522.11;109145;1254;71233;-64
2023/09/22 08:47:12;;;;;;;10.30;2.70;;;;;;;33.39;31.98;98522.53;109500;1253;68137;-62
2023/09/22 08:49:58;;;;;;;9.20;2.90;;;;;;;33.69;31.76;98518.84;109457;1254;71331;-63
2023/09/22 08:52:49;;;;;;;10.50;3.20;;;;;;;34.29;31.03;98515.89;109441;1253;58071;-62
2023/09/22 08:55:35;;;;;;;10.30;3.10;;;;;;;34.51;30.42;98510.26;109329;1253;60239;-64
2023/09/22 08:58:22;;;;;;;11.00;3.00;;;;;;;34.59;30.06;98509.11;109390;1254;74076;-63
2023/09/22 09:01:08;;;;;;;9.10;3.10;;;;;;;34.31;30.33;98499.82;109181;1254;67221;-63
2023/09/22 09:03:54;;;;;;;10.50;3.10;;;;;;;33.60;31.16;98490.04;109253;1252;71482;-62
2023/09/22 09:06:47;;;;;;;9.80;2.80;;;;;;;32.55;32.78;98497.08;109509;1253;58735;-63
2023/09/22 09:09:45;;;;;;;9.10;2.90;;;;;;;31.42;34.54;98500.52;109391;1253;60395;-63
2023/09/22 09:12:33;;;;;;;8.70;3.00;;;;;;;30.24;36.73;98501.23;109467;1252;74000;-62
2023/09/22 09:15:25;;;;;;;8.90;3.10;;;;;;;29.07;39.23;98503.01;109478;1252;68166;-63
2023/09/22 09:18:16;;;;;;;11.10;3.20;;;;;;;28.26;40.95;98509.45;109360;1253;73768;-64
2023/09/22 09:21:14;;;;;;;10.50;3.10;;;;;;;27.75;42.17;98500.46;109181;1253;59024;-63
2023/09/22 09:24:00;;;;;;;10.00;3.40;;;;;;;27.15;43.66;98507.83;109468;1252;58663;-60
2023/09/22 09:26:46;;;;;;;12.00;3.60;;;;;;;26.59;45.15;98514.95;109496;1254;72641;-61
2023/09/22 09:29:33;;;;;;;10.90;3.90;;;;;;;26.20;46.45;98514.38;109368;1253;67839;-62
2023/09/22 09:32:27;;;;;;;11.70;3.80;;;;;;;26.13;46.90;98512.52;109398;1254;71810;-62
2023/09/22 09:35:27;;;;;;;11.20;3.80;;;;;;;26.51;46.43;98517.30;109456;1253;59457;-63
2023/09/22 09:38:41;;;;;;;10.80;3.90;;;;;;;27.78;43.77;98521.77;109365;1253;59047;-65
2023/09/22 09:41:29;;;;;;;13.70;3.60;;;;;;;29.28;40.62;98514.70;109251;1253;71005;-64
2023/09/22 09:44:16;;;;;;;10.50;3.40;;;;;;;30.58;37.83;98514.16;109522;1253;68281;-62
2023/09/22 09:47:04;;;;;;;10.50;3.30;;;;;;;31.72;35.96;98515.70;109355;1253;72672;-64
2023/09/22 09:49:53;;;;;;;9.60;3.70;;;;;;;32.62;34.02;98517.83;109370;1253;57998;-64
2023/09/22 09:52:52;;;;;;;9.50;3.80;;;;;;;33.36;32.70;98519.52;109476;1252;60109;-63
2023/09/22 09:55:42;;;;;;;11.00;3.40;;;;;;;34.23;31.36;98511.48;109410;1253;72889;-62
2023/09/22 09:58:32;;;;;;;10.40;3.60;;;;;;;34.85;30.56;98503.36;109360;1253;67243;-65
2023/09/22 10:01:19;;;;;;;10.60;3.30;;;;;;;35.06;29.78;98506.33;109187;1253;72349;-61
2023/09/22 10:04:07;;;;;;;10.00;2.90;;;;;;;35.50;29.23;98504.73;109305;1254;58026;-64
2023/09/22 10:06:55;;;;;;;13.50;3.10;;;;;;;35.48;28.94;98501.96;109502;1252;59301;-62
2023/09/22 10:09:42;;;;;;;11.00;3.20;;;;;;;35.66;28.76;98496.76;109386;1253;74204;-63
2023/09/22 10:12:30;;;;;;;10.90;3.00;;;;;;;36.25;27.91;98496.05;109510;1252;69242;-64
2023/09/22 10:15:54;;;;;;;9.10;2.70;;;;;;;36.47;27.77;98492.52;109342;1253;71103;-63
2023/09/22 10:18:59;;;;;;;11.10;3.00;;;;;;;36.68;26.65;98484.13;109203;1253;57316;-62
2023/09/22 10:21:46;;;;;;;11.60;3.50;;;;;;;36.60;27.16;98477.55;109344;1252;58844;-64
2023/09/22 10:24:37;;;;;;;12.00;2.90;;;;;;;36.33;27.57;98471.59;109366;1252;72866;-63
2023/09/22 10:27:26;;;;;;;9.10;3.10;;;;;;;35.50;28.69;98469.95;109440;1252;67855;-64
2023/09/22 10:30:13;;;;;;;10.20;3.40;;;;;;;34.16;30.24;98476.58;109446;1253;72462;-63
2023/09/22 10:33:21;;;;;;;10.30;3.30;;;;;;;32.87;32.22;98473.43;109536;1252;57844;-62
2023/09/22 10:36:08;;;;;;;11.90;3.80;;;;;;;31.82;34.08;98473.88;109530;1253;60346;-62
2023/09/22 10:38:56;;;;;;;13.20;4.00;;;;;;;31.02;35.63;98467.33;109525;1253;73088;-61
2023/09/22 10:42:00;;;;;;;10.40;3.70;;;;;;;30.36;36.91;98469.48;109365;1254;66721;-64
2023/09/22 10:44:58;;;;;;;12.90;4.10;;;;;;;29.87;37.72;98474.24;109545;1252;71275;-61
2023/09/22 10:47:49;;;;;;;11.00;3.80;;;;;;;29.50;38.64;98469.31;109334;1253;58995;-62
2023/09/22 10:50:35;;;;;;;10.80;4.30;;;;;;;29.00;39.60;98478.11;109168;1252;60412;-61
2023/09/22 10:53:22;;;;;;;10.50;3.50;;;;;;;28.64;40.20;98474.80;109538;1253;73064;-64
2023/09/22 10:56:08;;;;;;;12.60;3.70;;;;;;;28.32;40.61;98476.58;109528;1253;67780;-62
2023/09/22 10:58:57;;;;;;;12.60;4.10;;;;;;;28.02;41.54;98481.82;109532;1253;71268;-64
2023/09/22 11:01:46;;;;;;;9.70;3.90;;;;;;;28.00;41.36;98483.23;109510;1252;58919;-63
2023/09/22 11:04:41;;;;;;;11.50;4.10;;;;;;;28.15;41.46;98484.29;109210;1253;60428;-65
2023/09/22 11:07:35;;;;;;;12.80;4.50;;;;;;;28.42;41.11;98492.98;109461;1252;74323;-64
2023/09/22 11:10:22;;;;;;;10.70;3.50;;;;;;;29.07;39.92;98494.02;109489;1252;68039;-64
2023/09/22 11:13:09;;;;;;;12.40;3.70;;;;;;;29.45;39.01;98495.69;109384;1253;72597;-63
2023/09/22 11:16:01;;;;;;;11.30;3.40;;;;;;;29.30;39.05;98498.83;109346;1253;58851;-65
2023/09/22 11:18:51;;;;;;;13.30;3.80;;;;;;;29.01;39.56;98494.70;109191;1252;60088;-66
2023/09/22 11:21:41;;;;;;;11.90;3.70;;;;;;;29.11;39.29;98501.30;109480;1252;73069;-68
2023/09/22 11:24:27;;;;;;;10.20;3.40;;;;;;;29.70;38.19;98495.77;109450;1252;68712;-64
2023/09/22 11:27:14;;;;;;;10.60;3.30;;;;;;;30.31;37.28;98498.77;109461;1252;72411;-64
2023/09/22 11:30:29;;;;;;;12.30;3.30;;;;;;;30.53;37.01;98503.92;109265;1253;57726;-63
2023/09/22 11:33:17;;;;;;;12.30;3.70;;;;;;;30.05;37.57;98512.89;109450;1252;58884;-64
2023/09/22 11:36:05;;;;;;;11.90;3.30;;;;;;;29.09;39.30;98522.86;109479;1252;72767;-65
2023/09/22 11:38:55;;;;;;;12.50;3.40;;;;;;;28.36;40.79;98522.08;109476;1252;68591;-64
2023/09/22 11:41:41;;;;;;;14.20;3.80;;;;;;;27.75;42.06;98516.91;109323;1253;72543;-63
2023/09/22 11:44:27;;;;;;;9.60;3.30;;;;;;;27.36;43.11;98517.86;109432;1252;58103;-64
2023/09/22 11:47:21;;;;;;;13.60;3.40;;;;;;;26.97;44.27;98512.32;109406;1252;60346;-66
2023/09/22 11:50:25;;;;;;;12.20;3.40;;;;;;;26.68;45.05;98520.48;109462;1252;74016;-64
2023/09/22 11:53:18;;;;;;;13.50;3.80;;;;;;;26.44;45.64;98527.65;109418;1252;67779;-66
2023/09/22 11:56:04;;;;;;;14.00;3.60;;;;;;;26.20;46.27;98532.59;109383;1252;72592;-66
2023/09/22 11:58:51;;;;;;;10.30;3.80;;;;;;;26.03;46.87;98537.71;109431;1252;57608;-65
2023/09/22 12:01:38;;;;;;;10.00;3.50;;;;;;;25.97;47.45;98536.92;109357;1252;58821;-66
2023/09/22 12:04:24;;;;;;;10.40;3.70;;;;;;;25.92;47.72;98538.63;109445;1252;72801;-65
2023/09/22 12:07:11;;;;;;;11.30;3.60;;;;;;;25.85;47.76;98536.03;109363;1253;68777;-64
2023/09/22 12:09:58;;;;;;;10.70;3.40;;;;;;;25.81;47.74;98531.49;109536;1252;72761;-65
2023/09/22 12:12:46;;;;;;;12.80;3.90;;;;;;;25.75;47.96;98535.34;109551;1253;57859;-65
2023/09/22 12:15:32;;;;;;;13.30;3.70;;;;;;;25.65;48.14;98541.38;109510;1253;61351;-67
2023/09/22 12:18:18;;;;;;;10.80;3.60;;;;;;;25.60;48.52;98542.52;109532;1252;71770;-66
2023/09/22 12:21:05;;;;;;;13.00;3.70;;;;;;;25.51;48.29;98541.16;109523;1253;66468;-65
2023/09/22 12:23:51;;;;;;;18.60;4.40;;;;;;;25.41;48.48;98550.09;109188;1253;73507;-66
2023/09/22 12:26:37;;;;;;;15.60;3.90;;;;;;;25.33;49.03;98554.50;109437;1252;57746;-65
2023/09/22 12:29:24;;;;;;;13.30;4.10;;;;;;;25.24;49.32;98552.02;109309;1252;60174;-64
2023/09/22 12:32:12;;;;;;;9.90;3.90;;;;;;;25.20;49.33;98554.91;109401;1253;71825;-66
2023/09/22 12:34:59;;;;;;;9.40;3.50;;;;;;;25.17;49.61;98556.39;109468;1253;68984;-67
2023/09/22 12:37:49;;;;;;;11.20;3.70;;;;;;;25.18;50.01;98560.05;109526;1252;72457;-65
2023/09/22 12:40:36;;;;;;;12.80;3.70;;;;;;;25.17;50.09;98559.70;109156;1255;58087;-66
2023/09/22 12:43:24;;;;;;;13.60;4.30;;;;;;;25.24;50.05;98562.14;109256;1256;60239;-68
2023/09/22 12:46:12;;;;;;;10.00;4.00;;;;;;;25.38;49.90;98566.32;109279;1255;71241;-66
2023/09/22 12:49:01;;;;;;;14.30;4.40;;;;;;;25.59;49.66;98565.66;109205;1256;67692;-68
2023/09/22 12:51:47;;;;;;;13.60;4.20;;;;;;;25.73;48.97;98570.73;109186;1255;72562;-68
2023/09/22 12:54:34;;;;;;;12.30;4.00;;;;;;;25.79;49.03;98571.01;109225;1255;58469;-64
2023/09/22 12:57:23;;;;;;;9.40;3.40;;;;;;;25.78;48.79;98566.55;109116;1255;61205;-65
2023/09/22 13:00:11;;;;;;;11.50;3.80;;;;;;;25.83;48.80;98567.52;109125;1256;72924;-66